Airfield :
LOGIN :

Register | Disclaimer

   EN    FR    IT 

 










Legend :    VFR   Marginal VFR   IFR   Intensive IFR   Very Intensive IFR
Visi :
Ceiling :
>= 8 km
>= 3000ft
5 to 8 km
1000 to 3000 ft
1500m to 5 km
500 to 1000 ft
800 to 1500m
200 to 500 ft
< 800m
< 200 ft
Symbols :   Thunderstorms  Fog  Heavy snow  Heavy precipitations  Wind > 20 kt
SIGMETs :     Misc.  Thunderstorms  Icing  Turbulence  Mountain Waves  Volcanic Ashes






- Airport Elevation : 433 ft
- IATA code : CCF


LFMK - Carcassonne

CURRENT METAR :
  • 221300Z AUTO 08015KT CAVOK 30/16 Q1010 TEMPO 09015G25KT

EXPIRED METARs :
  • 221230Z AUTO 09013KT 070V130 CAVOK 29/16 Q1010 TEMPO 09015G25KT
  • 221200Z AUTO 08013KT 050V110 CAVOK 29/16 Q1010 TEMPO 09015G25KT
  • 221130Z AUTO 09010KT 060V150 CAVOK 29/15 Q1011 TEMPO 09015G25KT
  • 221100Z AUTO 09010KT 070V140 CAVOK 28/15 Q1011 TEMPO 09015G25KT
  • 221030Z AUTO 09010KT 050V140 CAVOK 27/17 Q1012 TEMPO 09015G25KT

TAF TAF LFMK
Valid from the 22 at 09:00 until the 23 at 09:00 UTC


220800Z 2209/2309 09010KT CAVOK
TEMPO 2211/2219 09015G25KT
BECMG 2220/2222 VRB03KT BKN005
BECMG 2301/2303 27013KT BKN010
PROB30
TEMPO 2303/2309 4000 SHRA SCT025TCU
BECMG 2306/2308 27015G25KT BKN020



MET'MAP, your aeronautical weather chart ! - Copyright ORBIFLY December 2007 - Disclaimer

ORBIFLY MET'MAP TEAM :

Programming & Development : Alexandra Zaïnal
Original concept : Baudouin d'Aumeries
Technical & hardware support : Manuel Goepfert
Assistance : Marc-Olivier Méhu

Contact : metmap@orbifly.com




SOURCES & CREDITS :

   NOAA